• Join FlightAware (Why Join?)
  • Login
  • US Flag 
03:41AM EDT


 

Airport Tracker/Info


-or-


 

Live Flight TrackerFlight Track Log ✈ N53NW ✈ 18-Oct-2013 ✈ KSAT - KSTL

Flight Track Log - Related Links

Times and Time Zones

All times are in EDT time to prevent confusion due to time zone crossing. See the N53NW flight status page for this flight to view local times or setup timezone preferences in your user account.

Time Position Orientation Groundspeed Altitude Reporting Facility
EDT Latitude Longitude Course Direction KTS MPH feet Rate Location/Type
02:31PM 29.5153 -98.4528 130° Southeast 192 221 2,000  Level Houston Center
02:32PM 29.4956 -98.4256 130° Southeast 208 239 3,400 2,520 Climbing Houston Center
02:32PM 29.4772 -98.4022 132° Southeast 247 284 4,300 2,700 Climbing Houston Center
02:33PM 29.4522 -98.3636 127° Southeast 243 280 6,200 3,120 Climbing Houston Center
02:33PM 29.4439 -98.3389 111° Southeast 268 308 7,200 3,000 Climbing Houston Center
02:34PM 29.4803 -98.3006 43° Northeast 265 305 9,300 2,400 Climbing Houston Center
02:34PM 29.5000 -98.3083 341° North 267 307 9,900 2,220 Climbing Houston Center
02:35PM 29.5378 -98.3592 311° West 268 308 11,600 1,860 Climbing Houston Center
02:35PM 29.5575 -98.3853 311° West 275 316 12,000 360 Climbing Houston Center
02:36PM 29.5897 -98.4292 310° West 290 334 12,000  Level Houston Center
02:36PM 29.6078 -98.4514 313° West 317 365 12,000 720 Level Houston Center
02:37PM 29.6669 -98.4589 354° North 325 374 12,800 840 Climbing Houston Center
02:38PM 29.7639 -98.4450 North 328 377 13,600 1,440 Climbing Houston Center
02:39PM 29.8636 -98.4303 North 334 384 15,800 1,980 Climbing Houston Center
02:40PM 29.9569 -98.4167 North 336 387 17,800 1,980 Climbing Houston Center
02:41PM 30.0586 -98.4017 North 341 392 19,900 1,980 Climbing Houston Center
02:42PM 30.1514 -98.3875 North 337 388 22,000 1,980 Climbing Houston Center
02:43PM 30.2506 -98.3725 North 334 384 24,100 1,620 Climbing Houston Center
02:44PM 30.3333 -98.3592 North 341 392 25,400 1,200 Climbing Houston Center
02:45PM 30.4364 -98.3458 North 360 414 26,700 1,260 Climbing Houston Center
02:46PM 30.5656 -98.3261 North 388 447 28,100 1,200 Climbing Houston Center
02:47PM 30.6806 -98.3092 North 405 466 29,300 1,140 Climbing Houston Center
02:48PM 30.7958 -98.2933 North 410 472 30,500 1,200 Climbing Houston Center
02:49PM 30.9122 -98.2753 North 414 476 31,800 1,140 Climbing Houston Center
02:50PM 31.0281 -98.2578 North 412 474 32,900 1,020 Climbing Houston Center
02:52PM 31.1453 -98.2406 North 416 479 34,000 960 Climbing Houston Center
02:53PM 31.2631 -98.2231 North 419 482 35,000 960 Climbing Houston Center
02:54PM 31.3800 -98.2050 North 418 481 36,000 1,020 Climbing Houston Center
02:55PM 31.5344 -98.1811 North 424 488 37,400 1,020 Climbing Fort Worth Center
02:56PM 31.6600 -98.1431 14° North 419 482 38,400 960 Climbing Fort Worth Center
02:57PM 31.7586 -98.0658 34° Northeast 425 489 39,400 1,020 Climbing Fort Worth Center
02:58PM 31.8675 -97.9833 33° Northeast 436 502 40,500 780 Climbing Fort Worth Center
02:59PM 31.9639 -97.9056 34° Northeast 441 507 41,000 240 Climbing Fort Worth Center
03:00PM 32.0706 -97.8253 33° Northeast 441 507 41,000  Level Fort Worth Center
03:01PM 32.1817 -97.7375 34° Northeast 454 522 41,000  Level Fort Worth Center
03:02PM 32.2903 -97.6517 34° Northeast 467 537 41,000  Level Fort Worth Center
03:03PM 32.4033 -97.5661 33° Northeast 467 537 41,000  Level Fort Worth Center
03:04PM 32.5119 -97.4800 34° Northeast 467 537 41,000  Level Fort Worth Center
03:05PM 32.6247 -97.3911 34° Northeast 467 537 41,000  Level Fort Worth Center
03:06PM 32.7331 -97.3022 35° Northeast 472 543 41,000  Level Fort Worth Center
03:07PM 32.8353 -97.2231 33° Northeast 472 543 41,000  Level Fort Worth Center
03:08PM 32.9667 -97.1483 26° Northeast 478 550 41,000  Level Fort Worth Center
03:09PM 33.0836 -97.1011 19° North 470 541 41,000  Level Fort Worth Center
03:10PM 33.2044 -97.0533 18° North 465 535 41,000  Level Fort Worth Center
03:11PM 33.3233 -97.0058 18° North 460 529 41,000  Level Fort Worth Center
03:12PM 33.4461 -96.9553 19° North 460 529 41,000  Level Fort Worth Center
03:13PM 33.5672 -96.9050 19° North 460 529 41,000  Level Fort Worth Center
03:14PM 33.6881 -96.8542 19° North 460 529 41,000  Level Fort Worth Center
03:15PM 33.8108 -96.8036 19° North 460 529 41,000  Level Fort Worth Center
03:16PM 33.9336 -96.7525 19° North 460 529 41,000  Level Fort Worth Center
03:17PM 34.0544 -96.7042 18° North 460 529 41,000  Level Fort Worth Center
03:18PM 34.1814 -96.6528 19° North 451 519 41,000  Level Fort Worth Center
03:19PM 34.3022 -96.6014 19° North 451 519 41,000  Level Fort Worth Center
03:20PM 34.4250 -96.5500 19° North 451 519 41,000  Level Fort Worth Center
03:21PM 34.5456 -96.4983 19° North 451 519 41,000  Level Fort Worth Center
03:22PM 34.6661 -96.4467 19° North 451 519 41,000  Level Fort Worth Center
03:23PM 34.7869 -96.3947 19° North 451 519 41,000  Level Fort Worth Center
03:24PM 34.9094 -96.3450 18° North 451 519 41,000  Level Fort Worth Center
03:25PM 35.0300 -96.2928 20° North 451 519 41,000  Level Fort Worth Center
03:26PM 35.1483 -96.2431 19° North 451 519 41,000  Level Fort Worth Center
03:27PM 35.2603 -96.1728 27° Northeast 451 519 41,000  Level Fort Worth Center
03:28PM 35.3531 -96.0519 47° Northeast 457 526 41,000  Level Fort Worth Center
03:29PM 35.4353 -95.9436 47° Northeast 464 534 41,000  Level Fort Worth Center
03:30PM 35.5297 -95.8269 45° Northeast 469 540 41,000  Level Fort Worth Center
03:32PM 35.7311 -95.5561 47° Northeast 482 555 41,000  Level Kansas City Center
03:33PM 35.8397 -95.4117 47° Northeast 482 555 41,000  Level Kansas City Center
03:34PM 35.9319 -95.2903 47° Northeast 483 556 41,000  Level Kansas City Center
03:35PM 36.0219 -95.1683 48° Northeast 484 557 41,000  Level Kansas City Center
03:36PM 36.1133 -95.0475 47° Northeast 485 558 41,000  Level Kansas City Center
03:37PM 36.2031 -94.9258 48° Northeast 484 557 41,000  Level Kansas City Center
03:38PM 36.3111 -94.7806 47° Northeast 481 554 41,000  Level Kansas City Center
03:39PM 36.4014 -94.6592 47° Northeast 481 554 41,000  Level Kansas City Center
03:40PM 36.4911 -94.5383 47° Northeast 479 551 41,000  Level Kansas City Center
03:41PM 36.5794 -94.4164 48° Northeast 476 548 41,000  Level Kansas City Center
03:42PM 36.6669 -94.2964 48° Northeast 472 543 41,000 -60 Level Kansas City Center
03:44PM 36.7564 -94.1750 47° Northeast 473 544 40,900 -660 Descending Kansas City Center
03:45PM 36.8628 -94.0267 48° Northeast 477 549 39,700 -1,080 Descending Kansas City Center
03:46PM 36.9503 -93.9014 49° Northeast 478 550 38,700 -1,020 Descending Kansas City Center
03:47PM 37.0378 -93.7792 48° Northeast 474 545 37,700 -1,020 Descending Kansas City Center
03:48PM 37.1289 -93.6506 48° Northeast 473 544 36,600 -1,020 Descending Kansas City Center
03:49PM 37.2181 -93.5244 48° Northeast 479 551 35,600 -780 Descending Kansas City Center
03:50PM 37.3153 -93.3964 46° Northeast 498 573 35,000 -300 Descending Kansas City Center
03:51PM 37.4106 -93.2689 47° Northeast 499 574 35,000  Level Kansas City Center
03:52PM 37.5122 -93.1514 42° Northeast 496 571 35,000  Level Kansas City Center
03:53PM 37.6367 -93.0117 42° Northeast 495 570 35,000 -240 Level Kansas City Center
03:54PM 37.7356 -92.8903 44° Northeast 494 568 34,600 -1,140 Descending Kansas City Center
03:55PM 37.8367 -92.7717 43° Northeast 492 566 32,700 -1,800 Descending Kansas City Center
03:56PM 37.9394 -92.6475 44° Northeast 501 577 30,900 -1,680 Descending Kansas City Center
03:57PM 38.0436 -92.5269 42° Northeast 505 581 29,300 -1,560 Descending Kansas City Center
03:58PM 38.1428 -92.4094 43° Northeast 499 574 27,700 -1,620 Descending Kansas City Center
03:59PM 38.2458 -92.2864 43° Northeast 480 552 26,000 -1,620 Descending Kansas City Center
04:00PM 38.3356 -92.1772 44° Northeast 455 524 24,400 -1,620 Descending Kansas City Center
04:01PM 38.4236 -92.0694 44° Northeast 441 507 22,700 -1,620 Descending Kansas City Center
04:02PM 38.5111 -91.9653 43° Northeast 432 497 21,100 -1,620 Descending Kansas City Center
04:03PM 38.6103 -91.8433 44° Northeast 416 479 19,400 -1,380 Descending Kansas City Center
04:04PM 38.6872 -91.7442 45° Northeast 399 459 18,300 -1,080 Descending Kansas City Center
04:05PM 38.6928 -91.5994 87° East 399 459 17,200 -1,140 Descending Kansas City Center
04:06PM 38.6933 -91.4636 90° East 386 444 16,000 -1,080 Descending Kansas City Center
04:07PM 38.6933 -91.3297 90° East 359 413 15,000 -540 Descending Kansas City Center
04:08PM 38.6939 -91.2058 90° East 350 403 15,000 -540 Level Kansas City Center
04:09PM 38.6942 -91.0803 90° East 353 406 13,900 -1,260 Descending Kansas City Center
04:10PM 38.6944 -90.9608 90° East 342 394 12,400 -1,500 Descending Kansas City Center
04:11PM 38.6997 -90.8489 87° East 325 374 10,900 -1,500 Descending Kansas City Center
04:12PM 38.7053 -90.7422 86° East 308 354 9,400 -1,440 Descending Kansas City Center
04:14PM 38.7097 -90.6247 87° East 282 325 8,000 -720 Descending Kansas City Center
04:15PM 38.7136 -90.5364 87° East 257 296 8,000 -600 Level Kansas City Center
04:16PM 38.6928 -90.4547 108° East 252 290 6,800 -1,260 Descending Kansas City Center
04:17PM 38.6575 -90.3833 122° Southeast 250 288 5,400 -1,500 Descending Kansas City Center
04:18PM 38.6225 -90.2953 117° Southeast 243 280 3,700 -900 Descending Kansas City Center
04:19PM 38.6181 -90.2278 95° East 229 264 3,600 -720 Descending Kansas City Center
04:20PM 38.6714 -90.2106 14° North 213 245 2,300 -720 Descending Kansas City Center
04:21PM 38.6994 -90.2603 306° West 190 219 2,100 -540 Descending Kansas City Center
04:22PM 38.7228 -90.3081 302° West 152 175 1,300 -720 Descending Kansas City Center
04:23PM 38.7392 -90.3397 304° West 125 144 700 -600 Descending Kansas City Center